Time;durP1;ratioP1;P1;durP2;ratioP2;P2;SDS_P1;SDS_P2;PMS_P1;PMS_P2;Temp;Humidity;BMP_temperature;BMP_pressure;BME280_temperature;BME280_humidity;BME280_pressure;Samples;Min_cycle;Max_cycle;Signal;HPM_P1;HPM_P2
2022/08/30 00:01:01;;;;;;;;;;;;;;;25.17;48.01;99562.03;3159635;28;19924;-60
2022/08/30 00:01:02;;;;;;;;;;;;;;;25.17;47.92;99564.69;3155889;28;20302;-60
2022/08/30 00:02:34;;;;;;;;;;;;;;;25.16;48.20;99562.19;3159755;28;19924;-60
2022/08/30 00:04:07;;;;;;;;;;;;;;;25.16;48.10;99555.00;3159884;28;19924;-59
2022/08/30 00:05:38;;;;;;;;;;;;;;;25.17;47.93;99554.03;3159843;28;20015;-60
2022/08/30 00:07:10;;;;;;;;;;;;;;;25.16;47.90;99560.34;3159372;28;19928;-60
2022/08/30 00:08:42;;;;;;;;;;;;;;;25.15;48.57;99553.38;3159681;28;19935;-59
2022/08/30 00:10:13;;;;;;;;;;;;;;;25.13;48.33;99552.69;3159745;28;19924;-60
2022/08/30 00:11:45;;;;;;;;;;;;;;;25.14;48.50;99553.50;3159620;28;20401;-61
2022/08/30 00:13:17;;;;;;;;;;;;;;;25.12;48.18;99567.00;3159701;28;19924;-61
2022/08/30 00:14:49;;;;;;;;;;;;;;;25.12;48.09;99561.66;3152853;28;19928;-61
2022/08/30 00:16:22;;;;;;;;;;;;;;;25.11;48.16;99562.69;3166137;28;20286;-61
2022/08/30 00:17:54;;;;;;;;;;;;;;;25.12;48.06;99564.31;3159760;28;19978;-60
2022/08/30 00:19:26;;;;;;;;;;;;;;;25.12;48.16;99571.50;3159493;28;19927;-58
2022/08/30 00:20:57;;;;;;;;;;;;;;;25.11;48.17;99561.81;3155607;28;20362;-58
2022/08/30 00:22:29;;;;;;;;;;;;;;;25.05;49.15;99565.97;3159472;28;20278;-59
2022/08/30 00:24:01;;;;;;;;;;;;;;;25.01;48.95;99561.19;3158810;28;19981;-58
2022/08/30 00:25:33;;;;;;;;;;;;;;;24.96;49.09;99562.53;3159579;28;19974;-61
2022/08/30 00:27:04;;;;;;;;;;;;;;;24.93;49.22;99565.50;3159370;28;20455;-60
2022/08/30 00:28:36;;;;;;;;;;;;;;;24.93;49.03;99567.34;3159491;28;19935;-59
2022/08/30 00:30:08;;;;;;;;;;;;;;;24.90;49.23;99562.34;3159324;28;19924;-59
2022/08/30 00:31:41;;;;;;;;;;;;;;;24.87;49.76;99568.00;3159083;28;19931;-59
2022/08/30 00:33:14;;;;;;;;;;;;;;;24.86;49.65;99566.34;3159085;28;19931;-59
2022/08/30 00:34:46;;;;;;;;;;;;;;;24.86;49.52;99571.69;3158098;28;19924;-59
2022/08/30 00:36:18;;;;;;;;;;;;;;;24.83;49.74;99566.69;3159173;28;19935;-59
2022/08/30 00:37:49;;;;;;;;;;;;;;;24.80;49.73;99575.84;3159027;28;19928;-59
2022/08/30 00:39:21;;;;;;;;;;;;;;;24.80;49.72;99572.34;3159148;28;19931;-61
2022/08/30 00:40:52;;;;;;;;;;;;;;;24.80;49.48;99577.66;3158995;28;19924;-59
2022/08/30 00:42:24;;;;;;;;;;;;;;;24.81;49.56;99574.00;3158701;28;19932;-60
2022/08/30 00:43:56;;;;;;;;;;;;;;;24.83;49.22;99580.00;3158943;28;19981;-60
2022/08/30 00:45:28;;;;;;;;;;;;;;;24.80;49.76;99575.00;3158939;28;19935;-59
2022/08/30 00:47:01;;;;;;;;;;;;;;;24.77;49.60;99568.19;3158913;28;20025;-59
2022/08/30 00:48:34;;;;;;;;;;;;;;;24.74;49.89;99571.19;3156090;28;19924;-59
2022/08/30 00:50:07;;;;;;;;;;;;;;;24.71;50.33;99568.84;3158585;28;19931;-60
2022/08/30 00:51:39;;;;;;;;;;;;;;;24.67;50.42;99573.69;3159061;28;20452;-59
2022/08/30 00:53:13;;;;;;;;;;;;;;;24.66;50.28;99569.31;3158709;28;19924;-60
2022/08/30 00:54:45;;;;;;;;;;;;;;;24.62;50.51;99572.50;3158800;28;19971;-60
2022/08/30 00:56:17;;;;;;;;;;;;;;;24.62;50.63;99576.00;3158610;28;20421;-60
2022/08/30 00:57:51;;;;;;;;;;;;;;;24.61;50.27;99565.50;3159172;28;20399;-60
2022/08/30 00:59:23;;;;;;;;;;;;;;;24.58;50.73;99568.50;3158965;28;19982;-60
2022/08/30 01:00:56;;;;;;;;;;;;;;;24.57;50.46;99574.81;3159159;28;19928;-60
2022/08/30 01:02:32;;;;;;;;;;;;;;;24.51;50.61;99568.31;3158226;28;20377;-62
2022/08/30 01:04:04;;;;;;;;;;;;;;;24.50;50.97;99566.66;3159019;28;19924;-60
2022/08/30 01:05:37;;;;;;;;;;;;;;;24.45;51.18;99568.97;3158732;28;19928;-60
2022/08/30 01:07:08;;;;;;;;;;;;;;;24.41;51.31;99563.13;3158712;28;19924;-61
2022/08/30 01:08:39;;;;;;;;;;;;;;;24.40;51.08;99566.81;3158856;28;20353;-60
2022/08/30 01:10:12;;;;;;;;;;;;;;;24.41;50.72;99567.63;3158920;28;19946;-60
2022/08/30 01:11:44;;;;;;;;;;;;;;;24.41;50.95;99570.28;3162087;28;20347;-60
2022/08/30 01:13:16;;;;;;;;;;;;;;;24.40;50.74;99566.81;3158999;28;19931;-60
2022/08/30 01:14:48;;;;;;;;;;;;;;;24.40;50.73;99571.25;3158813;28;19935;-60
2022/08/30 01:16:20;;;;;;;;;;;;;;;24.39;51.02;99569.59;3158456;28;20405;-60
2022/08/30 01:17:55;;;;;;;;;;;;;;;24.35;51.48;99563.78;3158779;28;19924;-59
2022/08/30 01:19:30;;;;;;;;;;;;;;;24.35;51.09;99561.13;3158625;28;19928;-60
2022/08/30 01:21:05;;;;;;;;;;;;;;;24.34;51.17;99555.94;3158469;28;20327;-60
2022/08/30 01:22:42;;;;;;;;;;;;;;;24.34;51.24;99561.28;3158662;28;19955;-59
2022/08/30 01:24:15;;;;;;;;;;;;;;;24.32;51.24;99560.63;3158357;28;20549;-60
2022/08/30 01:25:49;;;;;;;;;;;;;;;24.29;51.15;99559.13;3158809;28;19936;-60
2022/08/30 01:27:22;;;;;;;;;;;;;;;24.33;51.35;99562.28;3158694;28;19924;-60
2022/08/30 01:28:56;;;;;;;;;;;;;;;24.33;51.27;99565.78;3158567;28;19924;-60
2022/08/30 01:30:27;;;;;;;;;;;;;;;24.31;51.04;99562.44;3152100;28;20347;-60
2022/08/30 01:31:59;;;;;;;;;;;;;;;24.32;51.39;99555.31;3158477;28;20026;-60
2022/08/30 01:33:30;;;;;;;;;;;;;;;24.30;51.04;99561.59;3158632;28;19924;-60
2022/08/30 01:35:02;;;;;;;;;;;;;;;24.33;51.10;99563.09;3158325;28;19924;-60
2022/08/30 01:36:34;;;;;;;;;;;;;;;24.33;51.01;99563.09;3158194;28;19924;-61
2022/08/30 01:38:05;;;;;;;;;;;;;;;24.35;51.13;99561.13;3158149;28;19928;-60
2022/08/30 01:39:38;;;;;;;;;;;;;;;24.35;51.29;99557.63;3158526;28;19934;-60
2022/08/30 01:41:11;;;;;;;;;;;;;;;24.33;51.13;99547.13;3158301;28;19935;-61
2022/08/30 01:42:42;;;;;;;;;;;;;;;24.33;50.87;99552.47;3158429;28;19924;-60
2022/08/30 01:44:14;;;;;;;;;;;;;;;24.33;50.74;99544.47;3158337;28;19935;-60
2022/08/30 01:45:45;;;;;;;;;;;;;;;24.34;51.13;99551.47;3158234;28;19931;-60
2022/08/30 01:47:18;;;;;;;;;;;;;;;24.33;51.26;99548.97;3158455;28;19924;-60
2022/08/30 01:48:49;;;;;;;;;;;;;;;24.29;51.07;99546.63;3158407;28;19934;-60
2022/08/30 01:50:21;;;;;;;;;;;;;;;24.26;51.52;99548.81;3156255;28;19924;-61
2022/08/30 01:51:53;;;;;;;;;;;;;;;24.22;51.56;99544.78;3158446;28;20404;-60
2022/08/30 01:53:24;;;;;;;;;;;;;;;24.18;51.69;99544.28;3157826;28;19935;-60
2022/08/30 01:54:56;;;;;;;;;;;;;;;24.13;51.79;99541.28;3158250;28;19928;-60
2022/08/30 01:56:28;;;;;;;;;;;;;;;24.15;51.83;99541.94;3158188;28;19928;-60
2022/08/30 01:58:00;;;;;;;;;;;;;;;24.11;51.80;99539.78;3158419;28;19927;-61
2022/08/30 01:59:32;;;;;;;;;;;;;;;24.09;51.77;99547.94;3158104;28;20367;-60
2022/08/30 02:01:04;;;;;;;;;;;;;;;24.08;51.88;99543.59;3157988;28;19928;-60
2022/08/30 02:02:35;;;;;;;;;;;;;;;24.09;51.78;99547.09;3158387;28;19924;-61
2022/08/30 02:04:10;;;;;;;;;;;;;;;24.08;51.64;99551.59;3157591;28;19924;-60
2022/08/30 02:05:42;;;;;;;;;;;;;;;24.07;51.73;99540.09;3158283;28;19930;-60
2022/08/30 02:07:13;;;;;;;;;;;;;;;24.04;51.91;99534.28;3158009;28;19924;-61
2022/08/30 02:08:45;;;;;;;;;;;;;;;24.01;52.24;99537.25;3158435;28;20003;-60
2022/08/30 02:10:19;;;;;;;;;;;;;;;23.97;52.04;99534.09;3157868;28;19924;-60
2022/08/30 02:11:51;;;;;;;;;;;;;;;23.97;51.90;99539.41;3157941;28;19924;-61
2022/08/30 02:13:22;;;;;;;;;;;;;;;23.96;52.16;99542.22;3157918;28;19924;-60
2022/08/30 02:14:54;;;;;;;;;;;;;;;23.99;51.69;99539.28;3157419;28;19932;-60
2022/08/30 02:16:26;;;;;;;;;;;;;;;23.99;51.56;99542.75;3158058;28;19924;-60
2022/08/30 02:17:57;;;;;;;;;;;;;;;24.02;51.74;99546.94;3158241;28;19925;-60
2022/08/30 02:19:30;;;;;;;;;;;;;;;24.02;51.64;99550.41;3158091;28;19992;-60
2022/08/30 02:21:01;;;;;;;;;;;;;;;24.03;51.47;99549.41;3157849;28;20396;-60
2022/08/30 02:22:33;;;;;;;;;;;;;;;24.05;51.45;99552.75;3157100;28;19924;-61
2022/08/30 02:24:05;;;;;;;;;;;;;;;24.06;51.70;99551.75;3155484;28;20379;-60
2022/08/30 02:25:38;;;;;;;;;;;;;;;24.07;51.30;99555.22;3158266;28;19947;-60
2022/08/30 02:27:09;;;;;;;;;;;;;;;24.07;51.27;99555.22;3151538;28;20320;-60
2022/08/30 02:28:40;;;;;;;;;;;;;;;24.07;51.41;99556.06;3158036;28;19931;-60
2022/08/30 02:30:12;;;;;;;;;;;;;;;24.07;51.38;99555.22;3156030;28;19927;-60
2022/08/30 02:31:44;;;;;;;;;;;;;;;24.09;51.44;99555.91;3157886;28;20162;-60
2022/08/30 02:33:15;;;;;;;;;;;;;;;24.09;51.27;99552.41;3157877;28;19925;-61
2022/08/30 02:34:46;;;;;;;;;;;;;;;24.09;51.14;99552.41;3157866;28;19924;-60
2022/08/30 02:36:19;;;;;;;;;;;;;;;24.09;51.18;99558.56;3158017;28;20455;-60
2022/08/30 02:37:51;;;;;;;;;;;;;;;24.10;51.12;99556.72;3158125;28;19955;-60
2022/08/30 02:39:22;;;;;;;;;;;;;;;24.10;51.03;99556.72;3157944;28;19924;-60
2022/08/30 02:40:55;;;;;;;;;;;;;;;24.11;51.30;99553.94;3157828;28;19931;-60
2022/08/30 02:42:27;;;;;;;;;;;;;;;24.12;50.86;99554.75;3157461;28;19924;-60
2022/08/30 02:43:59;;;;;;;;;;;;;;;24.12;51.20;99554.75;3158148;28;19924;-60
2022/08/30 02:45:31;;;;;;;;;;;;;;;24.10;51.01;99562.06;3153932;28;20006;-60
2022/08/30 02:47:02;;;;;;;;;;;;;;;24.09;51.11;99561.22;3157764;28;20381;-60
2022/08/30 02:48:33;;;;;;;;;;;;;;;24.09;51.18;99563.06;3158176;28;20352;-59
2022/08/30 02:50:05;;;;;;;;;;;;;;;24.09;51.01;99563.88;3157564;28;19928;-60
2022/08/30 02:51:37;;;;;;;;;;;;;;;24.07;51.30;99560.53;3157761;28;19928;-60
2022/08/30 02:53:09;;;;;;;;;;;;;;;24.06;51.09;99558.91;3157900;28;20728;-59
2022/08/30 02:54:40;;;;;;;;;;;;;;;24.06;51.08;99562.38;3158080;28;19924;-59
2022/08/30 02:56:14;;;;;;;;;;;;;;;24.04;51.45;99561.69;3151620;28;19931;-60
2022/08/30 02:57:46;;;;;;;;;;;;;;;24.01;51.32;99559.38;3157657;28;19984;-60
2022/08/30 02:59:17;;;;;;;;;;;;;;;24.03;51.41;99561.88;3157858;28;19925;-60
2022/08/30 03:00:49;;;;;;;;;;;;;;;24.02;51.15;99554.91;3151303;28;19928;-60
2022/08/30 03:02:21;;;;;;;;;;;;;;;23.98;51.50;99553.53;3157796;28;20307;-60
2022/08/30 03:03:52;;;;;;;;;;;;;;;23.97;51.40;99554.53;3158721;28;19924;-60
2022/08/30 03:05:24;;;;;;;;;;;;;;;23.96;51.47;99555.53;3160290;28;19928;-60
2022/08/30 03:06:56;;;;;;;;;;;;;;;23.96;51.49;99560.84;3157828;28;19928;-60
2022/08/30 03:08:27;;;;;;;;;;;;;;;23.93;51.53;99555.84;3157678;28;19924;-60
2022/08/30 03:09:58;;;;;;;;;;;;;;;23.93;51.32;99553.19;3157609;28;19931;-60
2022/08/30 03:11:31;;;;;;;;;;;;;;;23.91;51.39;99560.50;3151429;28;19939;-59
2022/08/30 03:13:04;;;;;;;;;;;;;;;23.90;51.45;99553.50;3157540;28;20312;-59
2022/08/30 03:14:36;;;;;;;;;;;;;;;23.90;51.18;99553.50;3157768;28;19930;-59
2022/08/30 03:16:07;;;;;;;;;;;;;;;23.89;51.58;99551.84;3155427;28;20276;-59
2022/08/30 03:17:38;;;;;;;;;;;;;;;23.89;51.53;99560.66;3157719;28;19939;-60
2022/08/30 03:19:10;;;;;;;;;;;;;;;23.90;51.07;99553.50;3157601;28;20336;-59
2022/08/30 03:20:42;;;;;;;;;;;;;;;23.90;51.32;99559.69;3157542;28;20381;-59
2022/08/30 03:22:13;;;;;;;;;;;;;;;23.89;51.06;99557.16;3157574;28;20017;-59
2022/08/30 03:23:44;;;;;;;;;;;;;;;23.90;51.29;99553.50;3157883;28;19978;-59
2022/08/30 03:25:16;;;;;;;;;;;;;;;23.91;50.90;99560.50;3157728;28;19924;-59
2022/08/30 03:26:49;;;;;;;;;;;;;;;23.88;51.45;99561.66;3157494;28;20309;-60
2022/08/30 03:28:21;;;;;;;;;;;;;;;23.89;51.12;99562.50;3159992;28;19931;-59
2022/08/30 03:29:52;;;;;;;;;;;;;;;23.89;51.25;99562.50;3160333;28;19924;-59
2022/08/30 03:31:24;;;;;;;;;;;;;;;23.88;51.16;99558.19;3159918;28;20007;-60
2022/08/30 03:32:56;;;;;;;;;;;;;;;23.87;51.20;99561.81;3160055;28;20309;-59
2022/08/30 03:34:27;;;;;;;;;;;;;;;23.87;51.25;99560.00;3159924;28;19947;-59
2022/08/30 03:35:59;;;;;;;;;;;;;;;23.88;51.29;99566.16;3159959;28;20345;-59
2022/08/30 03:37:30;;;;;;;;;;;;;;;23.87;51.10;99559.16;3159784;28;20336;-60
2022/08/30 03:39:01;;;;;;;;;;;;;;;23.88;50.84;99566.97;3159945;28;19928;-59
2022/08/30 03:40:33;;;;;;;;;;;;;;;23.87;51.33;99565.31;3160036;28;19934;-59
2022/08/30 03:42:06;;;;;;;;;;;;;;;23.87;51.04;99553.81;3159812;28;20357;-59
2022/08/30 03:43:38;;;;;;;;;;;;;;;23.86;51.19;99563.63;3159936;28;19980;-59
2022/08/30 03:45:10;;;;;;;;;;;;;;;23.86;50.82;99563.63;3159387;28;19928;-59
2022/08/30 03:46:42;;;;;;;;;;;;;;;23.89;51.09;99567.81;3159982;28;19931;-59
2022/08/30 03:48:13;;;;;;;;;;;;;;;23.88;50.98;99563.50;3159597;28;19928;-59
2022/08/30 03:49:45;;;;;;;;;;;;;;;23.90;50.95;99566.81;3159830;28;19928;-59
2022/08/30 03:51:17;;;;;;;;;;;;;;;23.91;50.77;99571.16;3159735;28;19924;-59
2022/08/30 03:52:48;;;;;;;;;;;;;;;23.89;50.98;99568.63;3159806;28;20234;-59
2022/08/30 03:54:20;;;;;;;;;;;;;;;23.89;50.99;99578.44;3159181;28;19928;-59
2022/08/30 03:55:51;;;;;;;;;;;;;;;23.89;50.73;99571.28;3159801;28;19935;-59
2022/08/30 03:57:24;;;;;;;;;;;;;;;23.90;51.02;99580.09;3159449;28;19924;-59
2022/08/30 03:58:55;;;;;;;;;;;;;;;23.92;50.62;99580.78;3159854;28;19928;-59
2022/08/30 04:00:27;;;;;;;;;;;;;;;23.90;50.62;99578.28;3160442;28;19932;-59
2022/08/30 04:01:59;;;;;;;;;;;;;;;23.91;50.73;99577.28;3159352;28;20300;-59
2022/08/30 04:03:30;;;;;;;;;;;;;;;23.93;50.51;99582.44;3159804;28;20261;-59
2022/08/30 04:05:02;;;;;;;;;;;;;;;23.93;50.48;99583.28;3159574;28;19924;-59
2022/08/30 04:06:34;;;;;;;;;;;;;;;23.93;50.66;99579.78;3152749;28;19987;-59
2022/08/30 04:08:06;;;;;;;;;;;;;;;23.95;50.75;99580.47;3159723;28;19924;-59
2022/08/30 04:09:36;;;;;;;;;;;;;;;23.96;50.34;99582.97;3159768;28;20430;-59
2022/08/30 04:11:08;;;;;;;;;;;;;;;23.97;50.66;99584.63;3159557;28;20011;-59
2022/08/30 04:12:41;;;;;;;;;;;;;;;23.95;50.57;99589.28;3159341;28;19932;-59
2022/08/30 04:14:12;;;;;;;;;;;;;;;23.96;50.79;99585.63;3159259;28;19932;-59
2022/08/30 04:15:44;;;;;;;;;;;;;;;23.96;50.51;99587.44;3159353;28;19947;-59
2022/08/30 04:17:16;;;;;;;;;;;;;;;23.99;50.36;99589.81;3159359;28;19930;-59
2022/08/30 04:18:47;;;;;;;;;;;;;;;23.98;50.63;99586.28;3159228;28;19924;-59
2022/08/30 04:20:18;;;;;;;;;;;;;;;23.98;50.50;99586.28;3158998;28;19954;-59
2022/08/30 04:21:50;;;;;;;;;;;;;;;23.99;50.76;99581.81;3159732;28;19932;-59
2022/08/30 04:23:21;;;;;;;;;;;;;;;24.01;50.44;99590.44;3159160;28;19924;-60
2022/08/30 04:24:52;;;;;;;;;;;;;;;24.02;50.37;99595.63;3159033;28;19928;-60
2022/08/30 04:26:23;;;;;;;;;;;;;;;24.01;50.54;99588.63;3159395;28;20311;-60
2022/08/30 04:27:56;;;;;;;;;;;;;;;24.03;50.76;99593.78;3154567;28;19924;-61
2022/08/30 04:29:28;;;;;;;;;;;;;;;24.00;51.02;99588.81;3159182;28;19935;-60
2022/08/30 04:31:00;;;;;;;;;;;;;;;23.99;51.01;99587.16;3159132;28;19977;-60
2022/08/30 04:32:34;;;;;;;;;;;;;;;23.97;50.69;99597.94;3158112;28;19928;-60
2022/08/30 04:34:06;;;;;;;;;;;;;;;23.95;50.93;99588.44;3156439;28;19924;-60
2022/08/30 04:35:40;;;;;;;;;;;;;;;23.98;51.00;99601.41;3158911;28;19931;-59
2022/08/30 04:37:10;;;;;;;;;;;;;;;23.94;51.39;99594.75;3158192;28;19931;-60
2022/08/30 04:38:42;;;;;;;;;;;;;;;23.92;51.01;99594.09;3153624;28;20396;-60
2022/08/30 04:40:14;;;;;;;;;;;;;;;23.96;51.20;99598.94;3157638;28;20232;-59
2022/08/30 04:41:47;;;;;;;;;;;;;;;23.95;50.99;99597.25;3158508;28;19924;-59
2022/08/30 04:43:20;;;;;;;;;;;;;;;23.99;50.99;99603.09;3159199;28;19963;-59
2022/08/30 04:44:51;;;;;;;;;;;;;;;24.01;50.83;99607.25;3158987;28;19947;-59
2022/08/30 04:46:23;;;;;;;;;;;;;;;24.04;51.04;99603.44;3158803;28;19925;-59
2022/08/30 04:47:55;;;;;;;;;;;;;;;24.07;50.60;99613.75;3159125;28;19927;-60
2022/08/30 04:49:26;;;;;;;;;;;;;;;24.09;50.75;99611.78;3158673;28;19989;-60
2022/08/30 04:50:58;;;;;;;;;;;;;;;24.10;50.95;99612.59;3158665;28;19928;-60
2022/08/30 04:52:28;;;;;;;;;;;;;;;24.11;50.71;99609.78;3159049;28;20025;-59
2022/08/30 04:54:00;;;;;;;;;;;;;;;24.13;50.90;99613.09;3157269;28;19985;-60
2022/08/30 04:55:31;;;;;;;;;;;;;;;24.12;50.97;99614.09;3158895;28;20635;-60
2022/08/30 04:57:03;;;;;;;;;;;;;;;24.14;51.01;99608.66;3162892;28;20433;-59
2022/08/30 04:58:36;;;;;;;;;;;;;;;24.13;51.12;99607.78;3158661;28;19928;-59
2022/08/30 05:00:10;;;;;;;;;;;;;;;24.16;50.83;99610.13;3158944;28;19931;-60
2022/08/30 05:01:41;;;;;;;;;;;;;;;24.17;51.01;99614.47;3158973;28;19981;-59
2022/08/30 05:03:13;;;;;;;;;;;;;;;24.21;51.18;99618.47;3158472;28;19924;-60
2022/08/30 05:06:31;;;;;;;;;;;;;;;24.24;51.33;99618.13;3157894;28;19939;-59
2022/08/30 05:08:02;;;;;;;;;;;;;;;24.27;51.32;99623.13;3158794;28;20003;-59
2022/08/30 05:09:34;;;;;;;;;;;;;;;24.22;51.53;99617.44;3158842;28;19925;-60
2022/08/30 05:11:06;;;;;;;;;;;;;;;24.26;51.35;99621.47;3158632;28;19958;-60
2022/08/30 05:12:38;;;;;;;;;;;;;;;24.29;51.14;99623.00;3158592;28;19925;-60
2022/08/30 05:14:11;;;;;;;;;;;;;;;24.30;51.15;99616.66;3158884;28;19928;-60
2022/08/30 05:15:42;;;;;;;;;;;;;;;24.29;51.08;99615.00;3158411;28;20024;-60
2022/08/30 05:17:14;;;;;;;;;;;;;;;24.29;51.14;99615.84;3153626;28;20395;-59
2022/08/30 05:18:46;;;;;;;;;;;;;;;24.30;51.13;99614.00;3158420;28;20411;-60
2022/08/30 05:20:16;;;;;;;;;;;;;;;24.32;51.43;99611.19;3158465;28;20419;-61
2022/08/30 05:21:48;;;;;;;;;;;;;;;24.33;51.32;99611.00;3158736;28;19924;-60
2022/08/30 05:23:19;;;;;;;;;;;;;;;24.37;51.25;99615.00;3158394;28;19939;-60
2022/08/30 05:24:50;;;;;;;;;;;;;;;24.42;50.95;99615.38;3158515;28;19924;-60
2022/08/30 05:26:23;;;;;;;;;;;;;;;24.46;50.89;99616.75;3158647;28;20312;-60
2022/08/30 05:27:55;;;;;;;;;;;;;;;24.48;50.72;99616.56;3153821;28;19936;-60
2022/08/30 05:29:30;;;;;;;;;;;;;;;24.47;50.63;99618.41;3158342;28;19977;-60
2022/08/30 05:31:01;;;;;;;;;;;;;;;24.49;50.60;99619.09;3158384;28;19985;-61
2022/08/30 05:32:33;;;;;;;;;;;;;;;24.51;50.60;99618.91;3158455;28;19928;-61
2022/08/30 05:34:05;;;;;;;;;;;;;;;24.55;50.67;99614.94;3158333;28;19928;-60
2022/08/30 05:35:36;;;;;;;;;;;;;;;24.62;50.58;99618.59;3158102;28;20337;-61
2022/08/30 05:37:08;;;;;;;;;;;;;;;24.67;50.32;99624.25;3158648;28;20388;-60
2022/08/30 05:38:40;;;;;;;;;;;;;;;24.74;50.26;99622.59;3158098;28;19935;-60
2022/08/30 05:40:12;;;;;;;;;;;;;;;24.81;49.75;99621.94;3158378;28;20337;-60
2022/08/30 05:41:43;;;;;;;;;;;;;;;24.87;49.76;99627.44;3158552;28;19924;-60
2022/08/30 05:43:15;;;;;;;;;;;;;;;24.95;49.55;99619.44;3158334;28;19932;-60
2022/08/30 05:44:50;;;;;;;;;;;;;;;25.04;49.63;99624.78;3158416;28;19924;-60
2022/08/30 05:46:22;;;;;;;;;;;;;;;25.05;49.12;99613.94;3157939;28;20359;-60
2022/08/30 05:47:54;;;;;;;;;;;;;;;25.21;49.34;99626.47;3158462;28;20019;-60
2022/08/30 05:49:25;;;;;;;;;;;;;;;25.26;49.08;99620.63;3158217;28;19924;-60
2022/08/30 05:51:05;;;;;;;;;;;;;;;25.30;48.81;99622.78;3158060;28;19981;-59
2022/08/30 05:52:37;;;;;;;;;;;;;;;25.36;48.26;99631.94;3153078;28;19924;-60
2022/08/30 05:54:09;;;;;;;;;;;;;;;25.42;48.69;99629.44;3158568;28;19978;-60
2022/08/30 05:55:39;;;;;;;;;;;;;;;25.50;48.15;99633.13;3158207;28;19932;-60
2022/08/30 05:57:11;;;;;;;;;;;;;;;25.54;48.02;99615.75;3157786;28;20014;-61
2022/08/30 05:58:44;;;;;;;;;;;;;;;25.61;48.17;99614.88;3158192;28;19981;-61
2022/08/30 06:00:17;;;;;;;;;;;;;;;25.64;47.81;99619.91;3157940;28;19931;-61
2022/08/30 06:01:49;;;;;;;;;;;;;;;25.70;47.50;99622.88;3158361;28;19975;-61
2022/08/30 06:03:20;;;;;;;;;;;;;;;25.76;47.37;99616.84;3158268;28;19989;-61
2022/08/30 06:04:52;;;;;;;;;;;;;;;25.82;47.60;99617.06;3151491;28;19928;-61
2022/08/30 06:06:24;;;;;;;;;;;;;;;25.87;47.19;99616.53;3158281;28;19924;-61
2022/08/30 06:07:55;;;;;;;;;;;;;;;25.95;47.32;99615.66;3157925;28;20411;-61
2022/08/30 06:09:27;;;;;;;;;;;;;;;26.01;47.00;99610.47;3158000;28;19928;-61
2022/08/30 06:10:59;;;;;;;;;;;;;;;26.03;46.92;99619.13;3158156;28;19924;-61
2022/08/30 06:12:30;;;;;;;;;;;;;;;26.08;46.42;99614.09;3158094;28;19932;-61
2022/08/30 06:14:02;;;;;;;;;;;;;;;26.17;46.48;99614.06;3158100;28;19924;-61
2022/08/30 06:15:35;;;;;;;;;;;;;;;26.19;46.33;99609.38;3153520;28;20254;-61
2022/08/30 06:17:07;;;;;;;;;;;;;;;26.29;46.37;99618.00;3157849;28;19924;-61
2022/08/30 06:18:37;;;;;;;;;;;;;;;26.34;45.98;99620.97;3158387;28;19924;-61
2022/08/30 06:20:09;;;;;;;;;;;;;;;26.40;46.23;99620.25;3158158;28;19928;-63
2022/08/30 06:21:41;;;;;;;;;;;;;;;26.44;45.68;99620.75;3157806;28;19928;-63
2022/08/30 06:23:13;;;;;;;;;;;;;;;26.50;45.79;99625.41;3158157;28;19928;-63
2022/08/30 06:24:45;;;;;;;;;;;;;;;26.52;45.74;99626.91;3156737;28;19963;-63
2022/08/30 06:26:17;;;;;;;;;;;;;;;26.53;45.78;99631.25;3157975;28;19924;-60
2022/08/30 06:27:48;;;;;;;;;;;;;;;26.56;45.39;99627.38;3158009;28;19999;-60
2022/08/30 06:29:20;;;;;;;;;;;;;;;26.63;45.26;99624.84;3157916;28;19924;-60
2022/08/30 06:30:53;;;;;;;;;;;;;;;26.67;45.18;99632.31;3157674;28;19981;-60
2022/08/30 06:32:25;;;;;;;;;;;;;;;26.70;45.50;99636.47;3157786;28;19934;-60
2022/08/30 06:33:56;;;;;;;;;;;;;;;26.73;45.19;99631.59;3157470;28;19928;-60
2022/08/30 06:35:28;;;;;;;;;;;;;;;26.78;45.35;99634.56;3157712;28;19924;-59
2022/08/30 06:37:00;;;;;;;;;;;;;;;26.80;44.95;99626.41;3152181;28;19932;-60
2022/08/30 06:38:31;;;;;;;;;;;;;;;26.83;45.03;99636.72;3157727;28;19955;-60
2022/08/30 06:40:03;;;;;;;;;;;;;;;26.88;45.23;99628.97;3157765;28;19928;-59
2022/08/30 06:41:36;;;;;;;;;;;;;;;26.92;44.78;99635.66;3157726;28;20290;-59
2022/08/30 06:43:07;;;;;;;;;;;;;;;26.94;44.88;99633.59;3157589;28;19928;-59
2022/08/30 06:44:39;;;;;;;;;;;;;;;26.96;44.50;99631.59;3157698;28;19928;-59
2022/08/30 06:46:13;;;;;;;;;;;;;;;27.02;44.77;99629.22;3157872;28;19924;-60
2022/08/30 06:47:45;;;;;;;;;;;;;;;27.02;44.34;99622.03;3157882;28;19924;-58
2022/08/30 06:49:17;;;;;;;;;;;;;;;27.04;44.36;99619.19;3158396;28;20369;-57
2022/08/30 06:50:52;;;;;;;;;;;;;;;27.06;44.42;99620.66;3157938;28;19931;-59
2022/08/30 06:52:24;;;;;;;;;;;;;;;27.15;44.73;99613.44;3158045;28;20539;-59
2022/08/30 06:53:56;;;;;;;;;;;;;;;27.19;44.49;99615.56;3158415;28;19924;-59
2022/08/30 06:55:28;;;;;;;;;;;;;;;27.23;43.83;99618.72;3157648;28;19978;-57
2022/08/30 06:56:59;;;;;;;;;;;;;;;27.32;44.12;99620.28;3157555;28;20309;-57
2022/08/30 06:58:31;;;;;;;;;;;;;;;27.36;43.96;99618.94;3157987;28;20030;-57
2022/08/30 07:00:04;;;;;;;;;;;;;;;27.41;43.40;99618.38;3157893;28;19985;-58
2022/08/30 07:01:37;;;;;;;;;;;;;;;27.49;43.87;99620.13;3156723;28;19990;-58
2022/08/30 07:03:08;;;;;;;;;;;;;;;27.52;43.36;99614.41;3160317;28;20496;-57
2022/08/30 07:04:40;;;;;;;;;;;;;;;27.55;43.02;99622.06;3160374;28;19935;-58
2022/08/30 07:06:12;;;;;;;;;;;;;;;27.65;43.32;99610.06;3160400;28;20018;-58
2022/08/30 07:07:44;;;;;;;;;;;;;;;27.76;42.90;99610.63;3160569;28;20358;-57
2022/08/30 07:09:15;;;;;;;;;;;;;;;27.84;43.16;99616.75;3160069;28;19924;-59
2022/08/30 07:10:46;;;;;;;;;;;;;;;27.93;42.64;99614.00;3160651;28;19924;-58
2022/08/30 07:12:17;;;;;;;;;;;;;;;28.00;42.75;99613.03;3160313;28;19924;-58
2022/08/30 07:13:49;;;;;;;;;;;;;;;28.05;42.33;99610.66;3160421;28;20412;-58
2022/08/30 07:15:21;;;;;;;;;;;;;;;28.15;42.65;99610.34;3160063;28;19946;-58
2022/08/30 07:16:54;;;;;;;;;;;;;;;28.26;42.24;99617.88;3160479;28;19931;-57
2022/08/30 07:20:15;;;;;;;;;;;;;;;28.47;41.96;99622.47;3160192;28;19928;-58
2022/08/30 07:21:47;;;;;;;;;;;;;;;28.61;41.60;99614.59;3160305;28;19935;-58
2022/08/30 07:23:19;;;;;;;;;;;;;;;28.74;41.37;99620.06;3160061;28;19935;-58
2022/08/30 07:24:51;;;;;;;;;;;;;;;28.84;41.02;99620.59;3160255;28;19924;-59
2022/08/30 07:26:24;;;;;;;;;;;;;;;28.98;41.03;99618.84;3159946;28;19928;-58
2022/08/30 07:27:56;;;;;;;;;;;;;;;29.11;40.93;99615.50;3160234;28;19924;-59
2022/08/30 07:29:27;;;;;;;;;;;;;;;29.25;40.81;99617.22;3160318;28;19924;-58
2022/08/30 07:30:59;;;;;;;;;;;;;;;29.39;40.67;99624.34;3157204;28;20122;-59
2022/08/30 07:32:32;;;;;;;;;;;;;;;29.55;40.16;99615.19;3159771;28;19924;-59
2022/08/30 07:34:03;;;;;;;;;;;;;;;29.69;39.82;99618.81;3159814;28;20027;-59
2022/08/30 07:35:36;;;;;;;;;;;;;;;29.80;39.59;99612.88;3159824;28;19931;-59
2022/08/30 07:37:07;;;;;;;;;;;;;;;29.92;39.07;99613.16;3159539;28;19974;-60
2022/08/30 07:38:39;;;;;;;;;;;;;;;30.04;39.03;99622.28;3159856;28;19936;-60
2022/08/30 07:40:11;;;;;;;;;;;;;;;30.14;38.62;99622.75;3159813;28;19925;-60
2022/08/30 07:41:43;;;;;;;;;;;;;;;30.31;38.39;99614.34;3159821;28;19927;-60
2022/08/30 07:43:15;;;;;;;;;;;;;;;30.51;38.18;99617.09;3159608;28;20328;-60
2022/08/30 07:44:46;;;;;;;;;;;;;;;30.65;37.76;99613.41;3159635;28;20280;-60
2022/08/30 07:46:18;;;;;;;;;;;;;;;30.75;36.93;99613.00;3162034;28;19924;-60
2022/08/30 07:47:51;;;;;;;;;;;;;;;30.91;36.95;99617.19;3159704;28;20329;-61
2022/08/30 07:49:23;;;;;;;;;;;;;;;31.13;36.55;99625.88;3159540;28;20563;-60
2022/08/30 07:50:55;;;;;;;;;;;;;;;31.31;36.28;99628.78;3159525;28;19928;-60
2022/08/30 07:52:27;;;;;;;;;;;;;;;31.48;35.89;99621.13;3159464;28;20359;-61
2022/08/30 07:53:59;;;;;;;;;;;;;;;31.70;35.94;99621.69;3159804;28;20035;-60
2022/08/30 07:55:30;;;;;;;;;;;;;;;31.92;35.42;99620.41;3159700;28;20023;-61
2022/08/30 07:57:02;;;;;;;;;;;;;;;32.13;35.23;99622.00;3159172;28;19936;-60
2022/08/30 07:58:36;;;;;;;;;;;;;;;32.28;35.32;99621.72;3159597;28;19924;-60
2022/08/30 08:00:08;;;;;;;;;;;;;;;32.37;33.95;99628.50;3159603;28;20015;-60
2022/08/30 08:01:40;;;;;;;;;;;;;;;32.46;34.64;99626.41;3159452;28;20035;-60